Time;durP1;ratioP1;P1;durP2;ratioP2;P2;SDS_P1;SDS_P2;PMS_P1;PMS_P2;Temp;Humidity;BMP_temperature;BMP_pressure;BME280_temperature;BME280_humidity;BME280_pressure;Samples;Min_cycle;Max_cycle;Signal;HPM_P1;HPM_P2
2023/07/28 00:00:08;;;;;;;23.05;17.95;;;;;;;16.79;100.00;100380.22;5055746;28;20036;-67
2023/07/28 00:02:33;;;;;;;22.25;18.23;;;;;;;16.77;100.00;100382.56;5040287;28;20071;-67
2023/07/28 00:04:59;;;;;;;22.40;18.45;;;;;;;16.77;100.00;100385.34;5034116;28;20384;-67
2023/07/28 00:07:24;;;;;;;22.00;17.83;;;;;;;16.77;100.00;100390.16;5043688;28;20053;-67
2023/07/28 00:09:49;;;;;;;21.98;17.67;;;;;;;16.75;100.00;100386.88;5053830;28;20040;-68
2023/07/28 00:12:14;;;;;;;22.33;17.70;;;;;;;16.77;100.00;100378.97;5055204;28;20092;-67
2023/07/28 00:14:40;;;;;;;22.73;18.52;;;;;;;16.76;100.00;100378.16;5033781;28;20034;-67
2023/07/28 00:17:05;;;;;;;22.70;17.52;;;;;;;16.74;100.00;100372.13;5035853;28;20060;-67
2023/07/28 00:19:31;;;;;;;22.83;17.83;;;;;;;16.75;100.00;100379.34;5041220;28;20437;-67
2023/07/28 00:21:56;;;;;;;22.83;18.02;;;;;;;16.76;100.00;100374.56;5048401;28;20492;-67
2023/07/28 00:24:21;;;;;;;22.00;17.42;;;;;;;16.75;100.00;100370.13;5053300;28;20032;-67
2023/07/28 00:26:47;;;;;;;22.85;17.60;;;;;;;16.75;100.00;100367.34;5046927;28;20029;-67
2023/07/28 00:29:12;;;;;;;21.92;16.90;;;;;;;16.76;100.00;100371.75;5038678;28;20041;-67
2023/07/28 00:31:37;;;;;;;21.35;16.75;;;;;;;16.75;100.00;100368.16;5039810;28;20071;-67
2023/07/28 00:34:03;;;;;;;21.13;16.67;;;;;;;16.75;100.00;100364.53;5036291;28;20041;-67
2023/07/28 00:36:29;;;;;;;21.70;16.67;;;;;;;16.74;100.00;100366.53;5051439;28;20451;-67
2023/07/28 00:38:55;;;;;;;21.75;17.20;;;;;;;16.76;100.00;100366.16;5060230;28;20064;-67
2023/07/28 00:41:20;;;;;;;20.70;16.52;;;;;;;16.76;100.00;100361.41;5049111;28;20111;-67
2023/07/28 00:43:45;;;;;;;21.73;17.55;;;;;;;16.76;100.00;100363.38;5053368;28;20116;-68
2023/07/28 00:46:12;;;;;;;21.60;17.17;;;;;;;16.78;100.00;100372.22;5049169;28;20044;-67
2023/07/28 00:48:39;;;;;;;21.65;16.85;;;;;;;16.76;100.00;100366.16;5052135;28;20472;-67
2023/07/28 00:51:05;;;;;;;21.95;16.85;;;;;;;16.77;100.00;100365.81;5043450;28;20040;-67
2023/07/28 00:53:31;;;;;;;22.88;16.90;;;;;;;16.76;100.00;100368.97;5044320;28;20098;-67
2023/07/28 00:55:56;;;;;;;23.60;17.33;;;;;;;16.75;100.00;100373.75;5049028;28;20426;-66
2023/07/28 00:58:22;;;;;;;21.95;17.40;;;;;;;16.75;100.00;100373.75;5050304;28;20443;-67
2023/07/28 01:00:47;;;;;;;22.80;17.80;;;;;;;16.75;100.00;100370.13;5034732;28;20454;-66
2023/07/28 01:03:14;;;;;;;22.00;17.25;;;;;;;16.75;100.00;100372.94;5047795;28;20030;-65
2023/07/28 01:05:44;;;;;;;22.40;17.45;;;;;;;16.77;100.00;100373.38;5049508;28;20028;-65
2023/07/28 01:08:32;;;;;;;22.50;17.95;;;;;;;16.78;100.00;100378.59;5042694;28;20052;-66
2023/07/28 01:10:58;;;;;;;23.30;17.70;;;;;;;16.76;100.00;100383.75;5035682;28;20069;-66
2023/07/28 01:13:23;;;;;;;22.80;17.30;;;;;;;16.77;100.00;100376.19;5037181;28;20192;-65
2023/07/28 01:15:48;;;;;;;22.60;17.23;;;;;;;16.77;100.00;100384.56;5047417;28;20104;-66
2023/07/28 01:18:15;;;;;;;23.08;18.10;;;;;;;16.76;100.00;100386.56;5047933;28;20062;-66
2023/07/28 01:20:42;;;;;;;22.75;17.70;;;;;;;16.77;100.00;100381.75;5035388;28;20473;-66
2023/07/28 01:23:13;;;;;;;23.25;17.98;;;;;;;16.77;100.00;100390.94;5042960;28;20042;-66
2023/07/28 01:26:00;;;;;;;22.27;17.30;;;;;;;16.77;100.00;100390.94;5032926;28;20021;-67
2023/07/28 01:28:27;;;;;;;22.65;17.27;;;;;;;16.79;100.00;100387.81;5040796;28;20067;-66
2023/07/28 01:30:52;;;;;;;23.13;18.40;;;;;;;16.78;100.00;100386.19;5044319;28;20029;-65
2023/07/28 01:33:17;;;;;;;22.63;17.77;;;;;;;16.79;100.00;100387.81;5047290;28;20087;-66
2023/07/28 01:35:43;;;;;;;22.52;17.52;;;;;;;16.80;100.00;100383.84;5046834;28;20029;-65
2023/07/28 01:38:08;;;;;;;22.77;17.55;;;;;;;16.79;100.00;100390.59;5037970;28;20029;-65
2023/07/28 01:40:34;;;;;;;24.23;18.40;;;;;;;16.79;100.00;100385.00;5038492;28;20089;-66
2023/07/28 01:42:59;;;;;;;23.48;18.23;;;;;;;16.78;100.00;100389.78;5052018;28;20033;-65
2023/07/28 01:45:25;;;;;;;22.77;18.10;;;;;;;16.81;100.00;100394.66;5045749;28;20559;-65
2023/07/28 01:47:50;;;;;;;22.67;17.48;;;;;;;16.81;100.00;100396.66;5048401;28;20484;-65
2023/07/28 01:50:15;;;;;;;22.30;17.50;;;;;;;16.81;100.00;100393.84;5038798;28;20029;-66
2023/07/28 01:52:41;;;;;;;22.77;18.10;;;;;;;16.80;100.00;100395.03;5044977;28;20022;-66
2023/07/28 01:55:07;;;;;;;23.67;18.05;;;;;;;16.82;100.00;100399.06;5039808;28;20032;-66
2023/07/28 01:57:33;;;;;;;22.83;17.75;;;;;;;16.82;100.00;100396.28;5046004;28;20419;-67
2023/07/28 01:59:58;;;;;;;23.33;18.52;;;;;;;16.82;100.00;100393.47;5051702;28;20086;-66
2023/07/28 02:02:24;;;;;;;23.77;18.42;;;;;;;16.82;100.00;100387.91;5045258;28;20036;-66
2023/07/28 02:04:49;;;;;;;22.85;17.48;;;;;;;16.83;100.00;100388.69;5051517;28;20085;-66
2023/07/28 02:07:14;;;;;;;24.10;18.75;;;;;;;16.81;100.00;100391.84;5043993;28;20038;-66
2023/07/28 02:09:39;;;;;;;24.13;18.27;;;;;;;16.82;100.00;100382.31;5031723;28;20039;-65
2023/07/28 02:12:05;;;;;;;22.90;17.95;;;;;;;16.84;100.00;100390.31;5044077;28;20029;-65
2023/07/28 02:14:30;;;;;;;23.98;18.85;;;;;;;16.86;100.00;100384.38;5051403;28;20120;-65
2023/07/28 02:16:56;;;;;;;23.73;17.95;;;;;;;16.86;100.00;100381.59;5038853;28;20102;-66
2023/07/28 02:19:21;;;;;;;24.33;19.25;;;;;;;16.84;100.00;100385.56;5051532;28;20444;-66
2023/07/28 02:21:46;;;;;;;23.10;18.27;;;;;;;16.84;100.00;100385.56;5039068;28;20486;-67
2023/07/28 02:24:12;;;;;;;25.20;18.77;;;;;;;16.84;100.00;100379.16;5035140;28;20038;-66
2023/07/28 02:26:37;;;;;;;24.63;18.45;;;;;;;16.85;100.00;100386.34;5037221;28;20032;-66
2023/07/28 02:29:03;;;;;;;24.33;18.20;;;;;;;16.86;100.00;100384.38;5036497;28;20116;-67
2023/07/28 02:31:28;;;;;;;23.25;17.63;;;;;;;16.84;100.00;100388.34;5034223;28;20311;-67
2023/07/28 02:33:53;;;;;;;25.63;18.58;;;;;;;16.84;100.00;100388.34;5043692;28;20029;-66
2023/07/28 02:36:19;;;;;;;23.35;18.17;;;;;;;16.83;100.00;100392.31;5044731;28;20107;-66
2023/07/28 02:38:44;;;;;;;24.05;17.70;;;;;;;16.84;100.00;100393.94;5051241;28;20028;-66
2023/07/28 02:41:11;;;;;;;23.75;18.20;;;;;;;16.84;100.00;100393.94;5038938;28;20035;-66
2023/07/28 02:43:36;;;;;;;24.50;18.42;;;;;;;16.84;100.00;100393.13;5050919;28;20037;-66
2023/07/28 02:46:01;;;;;;;25.10;18.63;;;;;;;16.84;100.00;100390.31;5048412;28;20037;-66
2023/07/28 02:48:27;;;;;;;25.27;18.85;;;;;;;16.83;100.00;100391.50;5048636;28;20487;-66
2023/07/28 02:50:52;;;;;;;24.67;18.25;;;;;;;16.82;100.00;100396.28;5040812;28;20040;-66
2023/07/28 02:53:18;;;;;;;25.58;19.00;;;;;;;16.82;100.00;100396.28;5038279;28;20037;-66
2023/07/28 02:55:45;;;;;;;25.45;17.80;;;;;;;16.82;100.00;100399.06;5035749;28;20619;-66
2023/07/28 02:58:12;;;;;;;25.63;18.33;;;;;;;16.82;100.00;100404.66;5051171;28;20031;-66
2023/07/28 03:00:38;;;;;;;26.30;19.00;;;;;;;16.83;100.00;100405.44;5044725;28;20021;-66
2023/07/28 03:03:04;;;;;;;26.35;19.55;;;;;;;16.82;100.00;100413.03;5045044;28;20487;-66
2023/07/28 03:05:31;;;;;;;25.77;18.65;;;;;;;16.83;100.00;100405.44;5039007;28;20061;-66
2023/07/28 03:07:56;;;;;;;30.30;20.08;;;;;;;16.81;100.00;100407.81;5043975;28;20424;-66
2023/07/28 03:10:22;;;;;;;26.60;19.42;;;;;;;16.82;100.00;100415.81;5050957;28;20036;-67
2023/07/28 03:12:47;;;;;;;28.65;20.38;;;;;;;16.82;100.00;100409.41;5049009;28;20754;-66
2023/07/28 03:15:12;;;;;;;27.38;19.50;;;;;;;16.81;100.00;100405.03;5031110;28;20061;-66
2023/07/28 03:17:38;;;;;;;29.27;20.50;;;;;;;16.81;100.00;100405.81;5040652;28;20124;-66
2023/07/28 03:20:04;;;;;;;27.58;20.40;;;;;;;16.82;100.00;100409.41;5047136;28;20080;-66
2023/07/28 03:22:30;;;;;;;26.73;20.45;;;;;;;16.81;100.00;100407.81;5043888;28;20048;-66
2023/07/28 03:24:55;;;;;;;27.98;20.20;;;;;;;16.82;100.00;100409.41;5032166;28;20030;-66
2023/07/28 03:27:21;;;;;;;29.92;20.83;;;;;;;16.81;100.00;100403.03;5048085;28;20070;-66
2023/07/28 03:29:46;;;;;;;27.42;20.52;;;;;;;16.82;100.00;100412.22;5029373;28;20043;-66
2023/07/28 03:32:11;;;;;;;27.52;19.42;;;;;;;16.82;100.00;100415.81;5036399;28;20415;-66
2023/07/28 03:34:37;;;;;;;26.75;19.25;;;;;;;16.82;100.00;100418.63;5035073;28;20377;-66
2023/07/28 03:37:03;;;;;;;27.45;19.67;;;;;;;16.82;100.00;100417.78;5048527;28;20452;-66
2023/07/28 03:39:29;;;;;;;27.60;20.92;;;;;;;16.82;100.00;100413.03;5048089;28;20033;-66
2023/07/28 03:41:55;;;;;;;30.00;21.40;;;;;;;16.82;100.00;100420.59;5048824;28;20534;-66
2023/07/28 03:44:20;;;;;;;29.95;20.90;;;;;;;16.84;100.00;100418.25;5054257;28;20111;-66
2023/07/28 03:46:46;;;;;;;26.88;20.15;;;;;;;16.82;100.00;100421.41;5044325;28;20103;-66
2023/07/28 03:49:12;;;;;;;31.60;20.75;;;;;;;16.82;100.00;100423.38;5050939;28;20022;-65
2023/07/28 03:51:37;;;;;;;30.70;21.52;;;;;;;16.80;100.00;100417.38;5037460;28;20033;-65
2023/07/28 03:54:02;;;;;;;30.58;22.33;;;;;;;16.81;100.00;100427.38;5054248;28;20103;-66
2023/07/28 03:56:28;;;;;;;31.60;22.65;;;;;;;16.80;100.00;100434.13;5041649;28;20030;-65
2023/07/28 03:58:54;;;;;;;30.85;22.35;;;;;;;16.79;100.00;100432.50;5054109;28;20044;-65
2023/07/28 04:01:21;;;;;;;31.33;23.20;;;;;;;16.80;100.00;100436.91;5044374;28;20100;-65
2023/07/28 04:03:47;;;;;;;34.17;23.63;;;;;;;16.78;100.00;100431.66;5056990;28;20147;-65
2023/07/28 04:06:12;;;;;;;33.22;23.00;;;;;;;16.80;100.00;100434.94;5033673;28;20100;-66
2023/07/28 04:08:38;;;;;;;30.90;21.90;;;;;;;16.81;100.00;100430.97;5049001;28;20060;-66
2023/07/28 04:11:04;;;;;;;31.42;22.27;;;;;;;16.81;100.00;100433.75;5035671;28;20033;-66
2023/07/28 04:13:29;;;;;;;30.40;22.63;;;;;;;16.81;100.00;100438.53;5045638;28;20472;-65
2023/07/28 04:15:54;;;;;;;30.30;22.48;;;;;;;16.83;100.00;100437.00;5039222;28;20025;-65
2023/07/28 04:18:20;;;;;;;31.20;23.50;;;;;;;16.81;100.00;100436.56;5053691;28;20033;-65
2023/07/28 04:20:46;;;;;;;33.08;23.60;;;;;;;16.82;100.00;100440.16;5038704;28;20087;-65
2023/07/28 04:23:11;;;;;;;31.23;23.60;;;;;;;16.82;100.00;100437.34;5036379;28;20029;-66
2023/07/28 04:25:37;;;;;;;32.83;22.88;;;;;;;16.81;100.00;100444.94;5042399;28;20039;-65
2023/07/28 04:28:02;;;;;;;32.50;22.63;;;;;;;16.82;100.00;100440.97;5043104;28;20091;-65
2023/07/28 04:30:27;;;;;;;35.58;22.83;;;;;;;16.81;100.00;100438.53;5054051;28;20071;-65
2023/07/28 04:32:53;;;;;;;34.00;22.73;;;;;;;16.82;100.00;100429.78;5046666;28;20048;-65
2023/07/28 04:35:18;;;;;;;31.80;21.90;;;;;;;16.83;100.00;100436.19;5051139;28;20412;-66
2023/07/28 04:37:43;;;;;;;32.13;22.55;;;;;;;16.83;100.00;100439.81;5039637;28;20468;-65
2023/07/28 04:40:09;;;;;;;32.03;22.08;;;;;;;16.84;100.00;100438.63;5052728;28;20103;-65
2023/07/28 04:42:36;;;;;;;31.00;22.30;;;;;;;16.87;100.00;100437.09;5042897;28;20025;-65
2023/07/28 04:45:01;;;;;;;30.42;21.10;;;;;;;16.87;100.00;100437.09;5052853;28;20037;-66
2023/07/28 04:47:27;;;;;;;31.95;22.63;;;;;;;16.91;100.00;100434.41;5046780;28;20396;-65
2023/07/28 04:49:52;;;;;;;30.73;21.48;;;;;;;16.93;100.00;100434.84;5053016;28;20068;-65
2023/07/28 04:52:17;;;;;;;32.13;22.27;;;;;;;16.95;100.00;100438.94;5047353;28;20017;-65
2023/07/28 04:54:43;;;;;;;30.90;21.92;;;;;;;16.96;100.00;100439.72;5053073;28;20427;-66
2023/07/28 04:57:08;;;;;;;32.63;22.50;;;;;;;16.98;100.00;100443.81;5038173;28;20496;-66
2023/07/28 04:59:33;;;;;;;32.33;22.65;;;;;;;16.98;100.00;100441.03;5049100;28;20037;-66
2023/07/28 05:01:58;;;;;;;30.58;21.52;;;;;;;16.98;100.00;100441.03;5036848;28;20045;-66
2023/07/28 05:04:24;;;;;;;31.58;22.35;;;;;;;16.99;100.00;100445.44;5069325;28;20029;-66
2023/07/28 05:06:49;;;;;;;31.52;22.38;;;;;;;17.00;100.00;100437.84;5033373;28;20055;-65
2023/07/28 05:09:14;;;;;;;30.90;21.60;;;;;;;17.02;100.00;100437.47;5049517;28;20035;-65
2023/07/28 05:11:40;;;;;;;31.17;22.05;;;;;;;17.02;100.00;100443.91;5040794;28;20039;-66
2023/07/28 05:14:08;;;;;;;29.70;21.17;;;;;;;17.02;100.00;100452.28;5048139;28;20039;-65
2023/07/28 05:16:34;;;;;;;28.35;20.92;;;;;;;17.05;100.00;100445.94;5045084;28;20135;-65
2023/07/28 05:18:59;;;;;;;30.38;21.90;;;;;;;17.07;100.00;100454.78;5060878;28;20504;-65
2023/07/28 05:21:25;;;;;;;30.27;21.75;;;;;;;17.09;100.00;100462.84;5049740;28;20032;-65
2023/07/28 05:23:50;;;;;;;34.03;23.45;;;;;;;17.09;100.00;100465.63;5044243;28;20033;-65
2023/07/28 05:26:16;;;;;;;30.63;21.48;;;;;;;17.12;100.00;100476.06;5035523;28;20067;-66
2023/07/28 05:28:41;;;;;;;30.02;20.52;;;;;;;17.12;100.00;100476.06;5033450;28;20057;-66
2023/07/28 05:31:07;;;;;;;31.45;22.30;;;;;;;17.14;100.00;100476.53;5032571;28;20120;-65
2023/07/28 05:33:32;;;;;;;30.00;20.92;;;;;;;17.18;100.00;100483.03;5042679;28;20055;-66
2023/07/28 05:36:04;;;;;;;29.63;21.80;;;;;;;17.21;100.00;100473.91;5052059;28;20408;-66
2023/07/28 05:38:29;;;;;;;29.13;20.55;;;;;;;17.22;100.00;100480.31;5047449;28;20033;-65
2023/07/28 05:41:00;;;;;;;30.80;21.63;;;;;;;17.24;100.00;100483.59;5045109;28;20027;-66
2023/07/28 05:43:27;;;;;;;29.60;20.98;;;;;;;17.25;100.00;100485.19;5050066;28;20602;-66
2023/07/28 05:45:52;;;;;;;29.83;20.75;;;;;;;17.27;100.00;100489.25;5049935;28;20087;-66
2023/07/28 05:48:18;;;;;;;29.50;20.70;;;;;;;17.31;100.00;100487.34;5040093;28;20412;-66
2023/07/28 05:50:43;;;;;;;29.70;20.67;;;;;;;17.36;100.00;100496.66;5051401;28;20061;-66
2023/07/28 05:53:09;;;;;;;31.92;20.73;;;;;;;17.37;100.00;100493.47;5050240;28;20089;-66
2023/07/28 05:55:34;;;;;;;29.38;19.98;;;;;;;17.39;100.00;100490.31;5039192;28;20100;-66
2023/07/28 05:57:59;;;;;;;28.88;19.92;;;;;;;17.41;100.00;100499.16;5035857;28;20493;-66
2023/07/28 06:00:25;;;;;;;29.95;21.30;;;;;;;17.43;100.00;100494.81;5032612;28;20478;-66
2023/07/28 06:02:50;;;;;;;30.42;21.05;;;;;;;17.45;100.00;100503.66;5039590;28;20037;-66
2023/07/28 06:05:16;;;;;;;30.73;23.02;;;;;;;17.45;100.00;100500.06;5051805;28;20516;-66
2023/07/28 06:07:42;;;;;;;28.48;21.85;;;;;;;17.42;100.00;100492.41;5036527;28;20043;-66
2023/07/28 06:10:07;;;;;;;32.30;22.05;;;;;;;17.48;100.00;100495.72;5045449;28;20394;-66
2023/07/28 06:12:32;;;;;;;30.98;24.10;;;;;;;17.52;100.00;100494.66;5034910;28;20036;-67
2023/07/28 06:14:58;;;;;;;31.42;22.50;;;;;;;17.55;100.00;100495.91;5048862;28;20534;-67
2023/07/28 06:17:23;;;;;;;32.17;23.88;;;;;;;17.57;100.00;100499.16;5049008;28;20657;-66
2023/07/28 06:19:48;;;;;;;33.03;23.85;;;;;;;17.59;100.00;100499.59;5051562;28;20484;-66
2023/07/28 06:22:14;;;;;;;34.53;24.88;;;;;;;17.62;100.00;100498.88;5033524;28;20029;-66
2023/07/28 06:24:39;;;;;;;33.25;23.55;;;;;;;17.65;100.00;100500.94;5047277;28;20041;-66
2023/07/28 06:27:08;;;;;;;33.30;25.48;;;;;;;17.72;100.00;100511.50;5031503;28;20057;-66
2023/07/28 06:29:33;;;;;;;34.83;25.90;;;;;;;17.76;100.00;100507.59;5046554;28;20044;-66
2023/07/28 06:31:59;;;;;;;34.00;25.50;;;;;;;17.81;100.00;100498.13;5048047;28;20539;-66
2023/07/28 06:34:24;;;;;;;34.97;26.92;;;;;;;17.83;100.00;100506.16;5051626;28;20094;-66
2023/07/28 06:36:49;;;;;;;35.08;27.92;;;;;;;17.87;100.00;100512.66;5042140;28;20053;-66
2023/07/28 06:39:15;;;;;;;39.58;27.92;;;;;;;17.91;100.00;100514.34;5048156;28;20581;-66
2023/07/28 06:41:40;;;;;;;40.88;30.13;;;;;;;17.92;100.00;100512.34;5046324;28;20626;-66
2023/07/28 06:44:05;;;;;;;39.08;28.63;;;;;;;17.89;100.00;100518.69;5053078;28;20369;-67
2023/07/28 06:46:31;;;;;;;40.83;30.85;;;;;;;17.91;100.00;100519.13;5056507;28;20064;-67
2023/07/28 06:48:56;;;;;;;41.30;31.08;;;;;;;17.91;100.00;100519.13;5041050;28;20408;-68
2023/07/28 06:51:21;;;;;;;44.42;31.80;;;;;;;17.96;100.00;100534.81;5046023;28;20121;-66
2023/07/28 06:53:47;;;;;;;45.88;33.20;;;;;;;17.97;100.00;100533.69;5042272;28;20033;-66
2023/07/28 06:56:12;;;;;;;48.45;33.58;;;;;;;17.96;100.00;100532.03;5030790;28;20044;-66
2023/07/28 06:58:37;;;;;;;44.00;31.45;;;;;;;17.99;100.00;100540.56;5036266;28;20575;-66
2023/07/28 07:01:03;;;;;;;47.58;33.15;;;;;;;18.00;100.00;100538.56;5050636;28;20017;-66
2023/07/28 07:03:28;;;;;;;44.72;33.10;;;;;;;18.01;100.00;100534.59;5042380;28;20033;-66
2023/07/28 07:05:53;;;;;;;45.78;32.83;;;;;;;18.06;100.00;100531.47;5034914;28;20037;-66
2023/07/28 07:08:19;;;;;;;47.50;33.58;;;;;;;18.11;100.00;100541.59;5033927;28;20030;-66
2023/07/28 07:10:50;;;;;;;46.13;32.67;;;;;;;18.15;100.00;100537.69;5052670;28;20509;-66
2023/07/28 07:13:16;;;;;;;43.60;31.90;;;;;;;18.22;100.00;100542.63;5056820;28;20090;-66
2023/07/28 07:15:42;;;;;;;46.20;32.03;;;;;;;18.27;100.00;100550.78;5040120;28;20401;-66
2023/07/28 07:18:07;;;;;;;40.75;30.08;;;;;;;18.31;100.00;100556.44;5035379;28;20810;-66
2023/07/28 07:20:36;;;;;;;40.20;29.17;;;;;;;18.33;100.00;100543.69;5042450;28;20034;-66
2023/07/28 07:23:01;;;;;;;42.20;30.83;;;;;;;18.30;100.00;100552.81;5036172;28;20026;-66
2023/07/28 07:25:27;;;;;;;42.95;29.85;;;;;;;18.26;100.00;100556.72;5047287;28;20099;-66
2023/07/28 07:27:52;;;;;;;42.05;29.95;;;;;;;18.24;100.00;100554.28;5034983;28;20026;-66
2023/07/28 07:30:17;;;;;;;41.60;29.05;;;;;;;18.22;100.00;100562.25;5052808;28;20853;-66
2023/07/28 07:32:43;;;;;;;41.03;28.27;;;;;;;18.23;100.00;100556.25;5048295;28;20022;-66
2023/07/28 07:35:08;;;;;;;37.75;27.77;;;;;;;18.26;100.00;100560.34;5053928;28;20534;-66
2023/07/28 07:37:34;;;;;;;37.33;27.02;;;;;;;18.27;100.00;100566.75;5040019;28;20059;-66
2023/07/28 07:40:02;;;;;;;36.40;25.92;;;;;;;18.29;100.00;100570.00;5049234;28;20473;-66
2023/07/28 07:42:40;;;;;;;35.85;26.40;;;;;;;18.30;100.00;100571.63;5040445;28;20041;-66
2023/07/28 07:45:07;;;;;;;34.72;25.63;;;;;;;18.33;100.00;100565.28;5050284;28;20060;-66
2023/07/28 07:47:32;;;;;;;34.97;26.67;;;;;;;18.37;100.00;100574.56;5042061;28;20495;-72
2023/07/28 07:49:58;;;;;;;35.80;25.10;;;;;;;18.42;100.00;100574.28;5048375;28;20109;-69
2023/07/28 07:52:23;;;;;;;34.42;25.55;;;;;;;18.46;100.00;100571.56;5054061;28;20104;-68
2023/07/28 07:54:48;;;;;;;35.03;24.65;;;;;;;18.48;100.00;100581.22;5040634;28;20528;-68
2023/07/28 07:57:14;;;;;;;33.38;24.83;;;;;;;18.53;100.00;100586.53;5034096;28;20104;-68
2023/07/28 07:59:39;;;;;;;35.00;25.58;;;;;;;18.56;100.00;100576.59;5041944;28;20362;-68
2023/07/28 08:02:05;;;;;;;34.67;24.98;;;;;;;18.57;100.00;100581.00;5032787;28;20037;-67
2023/07/28 08:04:31;;;;;;;34.53;25.45;;;;;;;18.55;100.00;100584.19;5051172;28;20262;-68
2023/07/28 08:06:57;;;;;;;34.00;25.15;;;;;;;18.54;100.00;100582.56;5040424;28;20033;-67
2023/07/28 08:09:22;;;;;;;32.13;24.27;;;;;;;18.55;100.00;100584.19;5041530;28;20033;-67
2023/07/28 08:11:47;;;;;;;31.92;23.60;;;;;;;18.56;100.00;100585.00;5035740;28;20029;-67
2023/07/28 08:14:13;;;;;;;30.42;22.80;;;;;;;18.57;100.00;100583.00;5052440;28;20769;-67
2023/07/28 08:16:38;;;;;;;29.83;22.63;;;;;;;18.58;100.00;100588.22;5045377;28;20046;-67
2023/07/28 08:19:04;;;;;;;30.60;21.90;;;;;;;18.62;100.00;100589.13;5037744;28;20056;-67
2023/07/28 08:21:31;;;;;;;30.70;23.05;;;;;;;18.64;100.00;100585.94;5044144;28;20411;-67
2023/07/28 08:23:56;;;;;;;29.95;22.90;;;;;;;18.69;100.00;100591.28;5051863;28;20053;-67
2023/07/28 08:26:21;;;;;;;30.70;21.35;;;;;;;18.74;100.00;100593.75;5045214;28;20036;-67
2023/07/28 08:28:47;;;;;;;28.95;22.10;;;;;;;18.74;100.00;100590.97;5039997;28;20080;-67
2023/07/28 08:31:12;;;;;;;29.98;21.85;;;;;;;18.74;100.00;100601.38;5045675;28;20052;-67
2023/07/28 08:33:37;;;;;;;27.80;21.27;;;;;;;18.72;100.00;100601.72;5033310;28;20108;-66
2023/07/28 08:36:03;;;;;;;28.42;21.55;;;;;;;18.73;100.00;100602.56;5052942;28;20032;-67
2023/07/28 08:38:28;;;;;;;28.90;21.40;;;;;;;18.73;100.00;100600.53;5052740;28;20025;-68
2023/07/28 08:40:56;;;;;;;28.85;20.63;;;;;;;18.74;100.00;100604.19;5051637;28;20021;-68
2023/07/28 08:43:21;;;;;;;28.05;21.17;;;;;;;18.78;100.00;100610.66;5051838;28;20108;-68
2023/07/28 08:45:47;;;;;;;30.05;22.48;;;;;;;18.75;100.00;100612.22;5071904;28;20472;-67
2023/07/28 08:48:12;;;;;;;29.05;21.58;;;;;;;18.78;100.00;100608.69;5073530;28;20082;-67
2023/07/28 08:50:37;;;;;;;28.40;21.40;;;;;;;18.82;100.00;100608.75;5064936;28;20036;-68
2023/07/28 08:53:03;;;;;;;29.42;21.73;;;;;;;18.84;100.00;100606.41;5043370;28;20068;-68
2023/07/28 08:55:28;;;;;;;29.02;22.15;;;;;;;18.83;100.00;100608.38;5062484;28;20028;-68
2023/07/28 08:57:53;;;;;;;29.50;22.17;;;;;;;18.84;100.00;100614.81;5053313;28;20033;-69
2023/07/28 09:00:19;;;;;;;28.77;22.08;;;;;;;18.85;100.00;100619.19;5047069;28;20079;-69
2023/07/28 09:02:49;;;;;;;29.52;21.67;;;;;;;18.85;100.00;100622.00;5046977;28;20077;-69
2023/07/28 09:05:19;;;;;;;29.00;21.55;;;;;;;18.89;100.00;100625.69;5050906;28;20712;-68
2023/07/28 09:07:45;;;;;;;28.65;22.13;;;;;;;18.94;100.00;100619.81;5045335;28;20126;-70
2023/07/28 09:10:10;;;;;;;28.75;21.55;;;;;;;19.05;100.00;100622.84;5046816;28;20409;-68
2023/07/28 09:12:44;;;;;;;28.05;21.10;;;;;;;19.13;100.00;100624.63;5039224;28;20037;-68
2023/07/28 09:15:10;;;;;;;28.60;21.10;;;;;;;19.30;100.00;100623.34;5042832;28;20032;-67
2023/07/28 09:17:42;;;;;;;29.17;21.88;;;;;;;19.41;100.00;100628.34;5051406;28;20484;-67
2023/07/28 09:20:13;;;;;;;26.67;21.33;;;;;;;19.53;100.00;100618.94;5048024;28;20389;-67
2023/07/28 09:22:39;;;;;;;27.13;21.27;;;;;;;19.71;100.00;100617.25;5048010;28;20047;-68
2023/07/28 09:25:15;;;;;;;26.60;21.27;;;;;;;19.97;100.00;100620.53;5039770;28;20036;-68
2023/07/28 09:27:48;;;;;;;27.33;21.75;;;;;;;20.05;100.00;100630.69;5051104;28;20075;-68
2023/07/28 09:30:16;;;;;;;27.27;21.63;;;;;;;20.16;100.00;100623.25;5051510;28;20103;-68
2023/07/28 09:32:47;;;;;;;27.05;20.92;;;;;;;20.21;100.00;100625.72;5051064;28;20033;-68
2023/07/28 09:35:13;;;;;;;27.50;21.48;;;;;;;20.34;100.00;100636.75;5050922;28;20040;-68
2023/07/28 09:37:41;;;;;;;25.73;20.38;;;;;;;20.46;100.00;100625.25;5050965;28;20021;-68
2023/07/28 09:40:11;;;;;;;26.92;20.85;;;;;;;20.67;100.00;100623.94;5051494;28;20713;-67
2023/07/28 09:42:49;;;;;;;28.48;21.75;;;;;;;20.70;100.00;100628.81;5050995;28;20677;-67
2023/07/28 09:45:15;;;;;;;26.45;20.40;;;;;;;20.82;100.00;100631.41;5060784;28;20155;-65
2023/07/28 09:47:44;;;;;;;27.27;20.80;;;;;;;20.88;100.00;100624.25;5070126;28;20036;-66
2023/07/28 09:50:10;;;;;;;26.67;21.40;;;;;;;21.05;100.00;100627.66;5069848;28;20031;-66
2023/07/28 09:52:43;;;;;;;26.77;21.83;;;;;;;21.17;100.00;100630.22;5069497;28;20457;-67
2023/07/28 09:55:11;;;;;;;28.30;22.25;;;;;;;21.13;100.00;100623.72;5069633;28;20377;-67
2023/07/28 09:57:40;;;;;;;26.08;21.20;;;;;;;21.02;100.00;100622.78;5069511;28;20101;-67
2023/07/28 10:00:11;;;;;;;25.65;20.67;;;;;;;21.09;100.00;100627.69;5069641;28;20071;-67
2023/07/28 10:02:37;;;;;;;26.90;20.48;;;;;;;21.07;100.00;100628.09;5069504;28;20031;-66
2023/07/28 10:05:05;;;;;;;25.27;20.92;;;;;;;21.11;100.00;100631.72;5068884;28;20503;-66
2023/07/28 10:07:31;;;;;;;24.88;19.75;;;;;;;21.17;100.00;100635.84;5050454;28;20112;-66
2023/07/28 10:09:56;;;;;;;25.05;19.80;;;;;;;21.19;100.00;100639.09;5050416;28;20108;-66
2023/07/28 10:12:25;;;;;;;24.65;19.30;;;;;;;21.21;100.00;100630.25;5050236;28;20021;-66
2023/07/28 10:15:01;;;;;;;23.38;19.25;;;;;;;21.21;100.00;100632.28;5043670;28;20041;-67
2023/07/28 10:17:34;;;;;;;22.90;18.50;;;;;;;21.25;100.00;100642.38;5039534;28;20627;-67
2023/07/28 10:20:08;;;;;;;23.95;18.08;;;;;;;21.26;100.00;100632.72;5039930;28;20059;-66
2023/07/28 10:22:43;;;;;;;24.60;19.58;;;;;;;21.31;100.00;100625.94;5040149;28;20045;-67
2023/07/28 10:25:10;;;;;;;23.48;18.70;;;;;;;21.38;100.00;100634.47;5043252;28;20040;-67
2023/07/28 10:27:38;;;;;;;23.65;18.77;;;;;;;21.41;100.00;100632.88;5038315;28;20140;-66
2023/07/28 10:30:11;;;;;;;25.23;19.90;;;;;;;21.49;100.00;100643.81;5038182;28;20045;-67
2023/07/28 10:32:50;;;;;;;24.17;18.52;;;;;;;21.75;100.00;100644.91;5037026;28;20022;-67
2023/07/28 10:35:18;;;;;;;26.98;19.80;;;;;;;21.97;100.00;100645.06;5040002;28;20116;-66
2023/07/28 10:37:48;;;;;;;24.83;18.70;;;;;;;22.08;100.00;100639.53;5040448;28;21073;-68
2023/07/28 10:40:30;;;;;;;24.52;19.50;;;;;;;22.24;100.00;100634.41;5038481;28;20091;-66
2023/07/28 10:42:57;;;;;;;23.67;18.47;;;;;;;22.32;99.10;100635.28;5041348;28;20025;-67
2023/07/28 10:45:27;;;;;;;24.70;19.20;;;;;;;22.26;100.00;100622.75;5046936;28;20036;-66
2023/07/28 10:47:59;;;;;;;23.45;18.92;;;;;;;22.46;99.62;100634.59;5029892;28;20037;-67
2023/07/28 10:50:30;;;;;;;24.35;19.48;;;;;;;22.58;100.00;100631.44;5029987;28;20745;-66
2023/07/28 10:52:55;;;;;;;23.60;17.67;;;;;;;22.53;97.03;100636.66;5030097;28;20025;-66
2023/07/28 10:55:23;;;;;;;22.42;17.63;;;;;;;22.35;98.37;100625.22;5033482;28;20033;-66
2023/07/28 10:57:50;;;;;;;22.80;17.40;;;;;;;22.27;100.00;100630.00;5036894;28;20026;-66